createdAt,value
2018-09-28T00:02:48.819Z,4.60
2018-09-28T00:05:52.326Z,4.77
2018-09-28T00:08:55.864Z,4.63
2018-09-28T00:11:59.330Z,4.60
2018-09-28T00:15:02.809Z,4.53
2018-09-28T00:18:06.489Z,4.80
2018-09-28T00:21:10.061Z,4.70
2018-09-28T00:24:13.542Z,5.13
2018-09-28T00:27:17.018Z,4.67
2018-09-28T00:30:20.513Z,5.10
2018-09-28T00:33:24.098Z,4.40
2018-09-28T00:36:27.622Z,4.70
2018-09-28T00:39:31.471Z,4.47
2018-09-28T00:42:34.970Z,4.57
2018-09-28T00:45:38.310Z,5.20
2018-09-28T00:48:41.774Z,4.53
2018-09-28T00:51:45.332Z,4.87
2018-09-28T00:54:48.902Z,4.63
2018-09-28T00:57:52.349Z,4.67
2018-09-28T01:00:55.982Z,4.87
2018-09-28T01:03:59.627Z,4.60
2018-09-28T01:07:03.056Z,5.10
2018-09-28T01:10:06.650Z,4.63
2018-09-28T01:13:10.081Z,4.50
2018-09-28T01:16:13.587Z,5.00
2018-09-28T01:19:17.074Z,4.50
2018-09-28T01:22:20.646Z,4.50
2018-09-28T01:25:24.107Z,4.67
2018-09-28T01:28:27.580Z,4.90
2018-09-28T01:31:31.431Z,4.90
2018-09-28T01:34:34.877Z,5.10
2018-09-28T01:37:38.361Z,4.77
2018-09-28T01:40:41.897Z,5.30
2018-09-28T01:43:45.558Z,5.30
2018-09-28T01:46:49.068Z,4.83
2018-09-28T01:49:52.664Z,5.33
2018-09-28T01:52:56.166Z,5.80
2018-09-28T01:55:59.628Z,5.17
2018-09-28T01:59:03.152Z,5.33
2018-09-28T02:02:06.681Z,4.97
2018-09-28T02:05:10.140Z,5.13
2018-09-28T02:08:13.671Z,5.00
2018-09-28T02:11:17.174Z,5.97
2018-09-28T02:14:20.694Z,5.07
2018-09-28T02:17:24.143Z,5.37
2018-09-28T02:20:27.623Z,5.17
2018-09-28T02:23:31.032Z,6.00
2018-09-28T02:26:34.457Z,4.90
2018-09-28T02:29:37.947Z,5.40
2018-09-28T02:32:41.448Z,5.73
2018-09-28T02:35:44.837Z,5.50
2018-09-28T02:38:48.305Z,5.70
2018-09-28T02:41:51.741Z,5.10
2018-09-28T02:44:55.341Z,5.57
2018-09-28T02:47:58.799Z,5.50
2018-09-28T02:51:02.330Z,4.93
2018-09-28T02:54:05.817Z,5.00
2018-09-28T02:57:09.371Z,4.97
2018-09-28T03:00:12.869Z,5.30
2018-09-28T03:03:16.583Z,5.33
2018-09-28T03:06:20.130Z,5.30
2018-09-28T03:09:23.637Z,5.40
2018-09-28T03:12:27.134Z,5.00
2018-09-28T03:15:30.561Z,5.60
2018-09-28T03:18:33.972Z,5.50
2018-09-28T03:21:37.399Z,5.17
2018-09-28T03:24:40.896Z,5.20
2018-09-28T03:27:44.390Z,6.00
2018-09-28T03:30:47.787Z,5.63
2018-09-28T03:33:51.179Z,5.60
2018-09-28T03:36:54.670Z,5.23
2018-09-28T03:39:58.115Z,5.70
2018-09-28T03:43:01.697Z,5.97
2018-09-28T03:46:05.103Z,5.60
2018-09-28T03:49:08.479Z,5.30
2018-09-28T03:52:11.899Z,5.50
2018-09-28T03:55:15.291Z,5.57
2018-09-28T03:58:18.800Z,6.07
2018-09-28T04:01:22.174Z,6.17
2018-09-28T04:04:25.574Z,5.17
2018-09-28T04:07:28.985Z,5.83
2018-09-28T04:10:32.394Z,5.83
2018-09-28T04:13:35.773Z,5.80
2018-09-28T04:16:39.188Z,5.50
2018-09-28T04:19:42.599Z,5.60
2018-09-28T04:22:46.012Z,6.20
2018-09-28T04:25:49.430Z,5.43
2018-09-28T04:28:53.219Z,5.40
2018-09-28T04:31:56.618Z,5.80
2018-09-28T04:35:00.008Z,6.10
2018-09-28T04:38:03.576Z,5.83
2018-09-28T04:41:07.040Z,5.73
2018-09-28T04:44:10.820Z,6.00
2018-09-28T04:47:14.218Z,5.87
2018-09-28T04:50:17.711Z,6.17
2018-09-28T04:53:21.972Z,6.27
2018-09-28T04:56:25.585Z,6.17
2018-09-28T04:59:29.253Z,5.97
2018-09-28T05:02:32.853Z,5.90
2018-09-28T05:05:36.396Z,5.53
2018-09-28T05:08:39.959Z,6.03
2018-09-28T05:11:43.505Z,5.33
2018-09-28T05:14:47.276Z,5.67
2018-09-28T05:17:50.829Z,5.63
2018-09-28T05:20:55.354Z,6.10
2018-09-28T05:23:58.791Z,5.53
2018-09-28T05:27:02.513Z,5.80
2018-09-28T05:30:06.103Z,5.47
2018-09-28T05:33:09.842Z,5.77
2018-09-28T05:36:13.474Z,6.40
2018-09-28T05:39:17.030Z,6.80
2018-09-28T05:42:20.548Z,5.90
2018-09-28T05:45:24.051Z,5.93
2018-09-28T05:48:27.546Z,6.23
2018-09-28T05:51:31.213Z,6.17
2018-09-28T05:54:34.636Z,5.63
2018-09-28T05:57:38.160Z,6.40
2018-09-28T06:00:46.952Z,5.80
2018-09-28T06:03:56.912Z,6.30
2018-09-28T06:07:00.497Z,5.70
2018-09-28T06:10:04.097Z,5.70
2018-09-28T06:13:07.951Z,6.57
2018-09-28T06:16:11.557Z,5.43
2018-09-28T06:19:15.258Z,5.90
2018-09-28T06:22:19.897Z,6.97
2018-09-28T06:25:23.456Z,6.03
2018-09-28T06:28:27.049Z,6.23
2018-09-28T06:31:30.481Z,6.53
2018-09-28T06:34:34.036Z,6.67
2018-09-28T06:37:37.518Z,6.70
2018-09-28T06:40:41.005Z,6.90
2018-09-28T06:43:44.610Z,7.00
2018-09-28T06:46:48.109Z,7.60
2018-09-28T06:49:51.662Z,6.80
2018-09-28T06:52:55.119Z,7.33
2018-09-28T06:55:58.638Z,7.27
2018-09-28T06:59:02.209Z,7.10
2018-09-28T07:02:05.766Z,7.27
2018-09-28T07:05:09.292Z,7.83
2018-09-28T07:08:12.906Z,7.13
2018-09-28T07:11:16.656Z,8.20
2018-09-28T07:14:20.169Z,8.47
2018-09-28T07:17:23.619Z,8.23
2018-09-28T07:20:27.177Z,8.47
2018-09-28T07:23:30.660Z,8.60
2018-09-28T07:26:34.210Z,8.80
2018-09-28T07:29:37.634Z,9.10
2018-09-28T07:32:41.051Z,9.53
2018-09-28T07:35:44.626Z,9.13
2018-09-28T07:38:48.223Z,10.20
2018-09-28T07:41:51.757Z,9.53
2018-09-28T07:44:55.242Z,9.67
2018-09-28T07:47:58.701Z,9.90
2018-09-28T07:51:02.197Z,9.90
2018-09-28T07:54:05.684Z,9.80
2018-09-28T07:57:09.210Z,11.27
2018-09-28T08:00:12.700Z,10.60
2018-09-28T08:03:16.173Z,9.87
2018-09-28T08:06:19.621Z,10.07
2018-09-28T08:09:23.190Z,10.20
2018-09-28T08:12:26.724Z,9.90
2018-09-28T08:15:30.172Z,10.83
2018-09-28T08:18:33.735Z,9.77
2018-09-28T08:21:37.441Z,9.93
2018-09-28T08:24:41.216Z,10.53
2018-09-28T08:27:44.652Z,9.83
2018-09-28T08:30:48.187Z,9.73
2018-09-28T08:33:51.824Z,9.70
2018-09-28T08:36:55.420Z,10.30
2018-09-28T08:39:58.856Z,11.17
2018-09-28T08:43:02.366Z,11.20
2018-09-28T08:46:05.905Z,10.90
2018-09-28T08:49:09.513Z,11.17
2018-09-28T08:52:14.034Z,11.40
2018-09-28T08:55:18.908Z,11.63
2018-09-28T08:58:22.407Z,10.53
2018-09-28T09:01:26.035Z,12.43
2018-09-28T09:04:29.902Z,11.47
2018-09-28T09:07:34.588Z,11.53
2018-09-28T09:10:38.056Z,11.33
2018-09-28T09:13:41.643Z,10.43
2018-09-28T09:16:45.062Z,10.90
2018-09-28T09:19:48.588Z,10.47
2018-09-28T09:22:52.058Z,11.10
2018-09-28T09:25:55.440Z,11.90
2018-09-28T09:28:58.837Z,12.00
2018-09-28T09:32:02.395Z,12.27
2018-09-28T09:35:05.998Z,12.10
2018-09-28T09:38:09.328Z,13.00
2018-09-28T09:41:14.659Z,12.00
2018-09-28T09:44:18.082Z,11.27
2018-09-28T09:47:21.667Z,11.87
2018-09-28T09:50:25.093Z,11.37
2018-09-28T09:53:28.587Z,12.30
2018-09-28T09:56:32.008Z,11.27
2018-09-28T09:59:35.385Z,12.30
2018-09-28T10:02:44.315Z,12.27
2018-09-28T10:05:48.063Z,12.93
2018-09-28T10:08:52.051Z,12.93
2018-09-28T10:11:55.435Z,12.00
2018-09-28T10:14:58.855Z,12.43
2018-09-28T10:18:02.237Z,12.43
2018-09-28T10:21:06.055Z,12.70
2018-09-28T10:24:09.469Z,12.37
2018-09-28T10:27:12.888Z,12.10
2018-09-28T10:30:16.254Z,12.63
2018-09-28T10:33:19.858Z,12.60
2018-09-28T10:36:24.317Z,13.20
2018-09-28T10:39:27.728Z,11.90
2018-09-28T10:42:31.083Z,11.40
2018-09-28T10:45:34.598Z,11.97
2018-09-28T10:48:38.078Z,11.97
2018-09-28T10:51:41.644Z,12.40
2018-09-28T10:54:45.252Z,10.73
2018-09-28T10:57:49.104Z,11.07
2018-09-28T11:00:52.584Z,11.57
2018-09-28T11:03:56.023Z,10.43
2018-09-28T11:07:00.063Z,10.70
2018-09-28T11:10:03.623Z,11.53
2018-09-28T11:13:08.171Z,11.90
2018-09-28T11:16:12.322Z,12.03
2018-09-28T11:19:15.882Z,12.40
2018-09-28T11:22:19.652Z,12.83
2018-09-28T11:25:24.264Z,12.73
2018-09-28T11:28:28.016Z,12.90
2018-09-28T11:31:31.510Z,13.70
2018-09-28T11:34:35.047Z,13.22
2018-09-28T11:37:38.752Z,12.53
2018-09-28T11:40:42.201Z,12.63
2018-09-28T11:43:45.785Z,12.28
2018-09-28T11:46:50.093Z,13.20
2018-09-28T11:49:53.595Z,12.70
2018-09-28T11:52:57.142Z,11.18
2018-09-28T11:56:00.637Z,10.53
2018-09-28T11:59:04.252Z,10.10
2018-09-28T12:02:08.581Z,10.68
2018-09-28T12:05:12.229Z,10.20
2018-09-28T12:08:15.798Z,11.20
2018-09-28T12:11:19.396Z,10.95
2018-09-28T12:14:22.931Z,10.50
2018-09-28T12:17:26.441Z,11.90
2018-09-28T12:20:29.871Z,10.85
2018-09-28T12:23:33.309Z,11.48
2018-09-28T12:26:36.745Z,10.60
2018-09-28T12:29:40.478Z,9.58
2018-09-28T12:32:43.956Z,11.12
2018-09-28T12:35:47.324Z,10.37
2018-09-28T12:38:50.753Z,10.35
2018-09-28T12:41:54.159Z,9.05
2018-09-28T12:44:57.667Z,10.60
2018-09-28T12:48:01.114Z,10.65
2018-09-28T12:51:04.555Z,9.58
2018-09-28T12:54:07.981Z,10.70
2018-09-28T12:57:11.472Z,10.65
2018-09-28T13:00:14.914Z,10.72
2018-09-28T13:03:18.375Z,12.15
2018-09-28T13:06:21.861Z,11.80
2018-09-28T13:09:25.272Z,11.70
2018-09-28T13:12:28.696Z,11.95
2018-09-28T13:15:32.175Z,11.30
2018-09-28T13:18:35.721Z,10.90
2018-09-28T13:21:39.228Z,11.55
2018-09-28T13:24:42.819Z,11.35
2018-09-28T13:27:46.258Z,11.08
2018-09-28T13:30:49.880Z,10.93
2018-09-28T13:33:53.267Z,10.00
2018-09-28T13:36:56.706Z,9.53
2018-09-28T13:40:00.144Z,8.93
2018-09-28T13:43:03.615Z,9.65
2018-09-28T13:46:07.450Z,10.23
2018-09-28T13:49:10.919Z,11.65
2018-09-28T13:52:14.453Z,11.43
2018-09-28T13:55:17.800Z,11.83
2018-09-28T13:58:21.206Z,10.57
2018-09-28T14:01:24.626Z,9.93
2018-09-28T14:04:28.235Z,10.87
2018-09-28T14:07:31.513Z,11.20
2018-09-28T14:10:34.919Z,9.50
2018-09-28T14:13:38.368Z,10.13
2018-09-28T14:16:41.827Z,9.57
2018-09-28T14:19:45.191Z,9.45
2018-09-28T14:22:48.636Z,8.37
2018-09-28T14:25:52.042Z,8.90
2018-09-28T14:28:55.461Z,8.60
2018-09-28T14:31:58.790Z,7.75
2018-09-28T14:35:02.386Z,8.33
2018-09-28T14:38:06.922Z,7.65
2018-09-28T14:41:10.376Z,7.95
2018-09-28T14:44:13.772Z,7.73
2018-09-28T14:47:17.192Z,7.87
2018-09-28T14:50:20.758Z,7.33
2018-09-28T14:53:24.241Z,7.95
2018-09-28T14:56:27.759Z,7.80
2018-09-28T14:59:31.130Z,8.20
2018-09-28T15:02:34.652Z,8.53
2018-09-28T15:05:38.141Z,8.63
2018-09-28T15:08:41.695Z,8.00
2018-09-28T15:11:45.307Z,9.10
2018-09-28T15:14:49.123Z,7.40
2018-09-28T15:17:52.900Z,7.83
2018-09-28T15:20:56.631Z,7.80
2018-09-28T15:24:00.375Z,6.80
2018-09-28T15:27:03.963Z,5.77
2018-09-28T15:30:08.481Z,5.53
2018-09-28T15:36:49.855Z,4.70
2018-09-28T15:39:53.517Z,5.25
2018-09-28T15:42:57.115Z,3.95
2018-09-28T15:46:00.727Z,3.87
2018-09-28T15:49:04.149Z,3.50
2018-09-28T15:52:07.641Z,2.97
2018-09-28T15:55:11.156Z,4.07
2018-09-28T15:58:14.827Z,4.17
2018-09-28T16:01:18.337Z,4.37
2018-09-28T16:04:21.851Z,4.80
2018-09-28T16:07:25.361Z,5.53
2018-09-28T16:10:28.735Z,5.20
2018-09-28T16:13:32.152Z,6.60
2018-09-28T16:16:35.563Z,6.83
2018-09-28T16:19:39.018Z,6.83
2018-09-28T16:22:42.448Z,6.47
2018-09-28T16:25:45.832Z,7.05
2018-09-28T16:28:49.321Z,7.03
2018-09-28T16:35:31.136Z,7.00
2018-09-28T16:38:34.709Z,5.87
2018-09-28T16:41:38.184Z,7.10
2018-09-28T16:44:41.798Z,7.17
2018-09-28T16:47:45.253Z,6.87
2018-09-28T16:50:48.675Z,6.60
2018-09-28T16:53:52.181Z,6.40
2018-09-28T16:56:55.866Z,6.80
2018-09-28T16:59:59.283Z,6.33
2018-09-28T17:03:02.711Z,6.77
2018-09-28T17:06:06.151Z,5.90
2018-09-28T17:09:10.445Z,6.20
2018-09-28T17:12:13.989Z,6.77
2018-09-28T17:15:17.445Z,7.03
2018-09-28T17:18:20.893Z,7.30
2018-09-28T17:21:24.566Z,7.03
2018-09-28T17:24:27.969Z,6.97
2018-09-28T17:27:31.384Z,7.03
2018-09-28T17:30:34.870Z,7.30
2018-09-28T17:33:38.290Z,6.93
2018-09-28T17:36:41.675Z,6.33
2018-09-28T17:39:45.058Z,7.87
2018-09-28T17:42:48.708Z,6.80
2018-09-28T17:45:52.280Z,6.30
2018-09-28T17:48:55.885Z,7.40
2018-09-28T17:51:59.388Z,7.70
2018-09-28T17:55:02.889Z,7.27
2018-09-28T17:58:06.545Z,7.20
2018-09-28T18:01:10.022Z,6.87
2018-09-28T18:04:13.533Z,6.77
2018-09-28T18:07:17.105Z,6.67
2018-09-28T18:10:20.608Z,6.40
2018-09-28T18:13:24.189Z,6.17
2018-09-28T18:16:27.713Z,8.70
2018-09-28T18:19:31.203Z,6.47
2018-09-28T18:22:35.758Z,7.77
2018-09-28T18:25:39.138Z,7.53
2018-09-28T18:28:42.724Z,9.17
2018-09-28T18:31:46.247Z,7.13
2018-09-28T18:34:49.734Z,6.00
2018-09-28T18:37:53.245Z,5.50
2018-09-28T18:40:56.764Z,4.90
2018-09-28T18:44:00.279Z,4.47
2018-09-28T18:47:03.765Z,4.53
2018-09-28T18:50:07.275Z,4.47
2018-09-28T18:53:10.762Z,4.50
2018-09-28T18:56:14.391Z,3.67
2018-09-28T18:59:17.954Z,4.20
2018-09-28T19:02:21.365Z,3.70
2018-09-28T19:05:24.863Z,3.43
2018-09-28T19:08:28.389Z,3.13
2018-09-28T19:11:31.877Z,5.60
2018-09-28T19:14:35.378Z,4.13
2018-09-28T19:17:39.001Z,4.13
2018-09-28T19:20:42.591Z,7.33
2018-09-28T19:23:46.096Z,7.70
2018-09-28T19:26:49.620Z,7.20
2018-09-28T19:29:53.120Z,3.67
2018-09-28T19:32:57.011Z,2.67
2018-09-28T19:36:00.563Z,3.20
2018-09-28T19:39:04.759Z,3.30
2018-09-28T19:42:08.368Z,2.87
2018-09-28T19:45:11.845Z,2.90
2018-09-28T19:48:15.494Z,2.90
2018-09-28T19:51:18.986Z,3.03
2018-09-28T19:54:22.433Z,2.70
2018-09-28T19:57:26.040Z,2.60
2018-09-28T20:00:29.811Z,3.30
2018-09-28T20:03:33.356Z,2.60
2018-09-28T20:06:37.207Z,2.57
2018-09-28T20:09:40.675Z,2.40
2018-09-28T20:12:44.450Z,2.97
2018-09-28T20:15:48.248Z,2.57
2018-09-28T20:18:51.789Z,3.70
2018-09-28T20:21:55.260Z,2.50
2018-09-28T20:24:58.746Z,2.70
2018-09-28T20:28:02.325Z,2.33
2018-09-28T20:31:06.075Z,3.37
2018-09-28T20:34:09.587Z,2.67
2018-09-28T20:37:13.164Z,2.70
2018-09-28T20:40:16.673Z,4.50
2018-09-28T20:43:20.200Z,5.17
2018-09-28T20:46:23.791Z,7.87
2018-09-28T20:49:27.296Z,7.00
2018-09-28T20:52:30.866Z,5.73
2018-09-28T20:55:34.448Z,3.77
2018-09-28T20:58:37.952Z,3.77
2018-09-28T21:01:41.920Z,3.30
2018-09-28T21:04:45.425Z,7.90
2018-09-28T21:07:49.970Z,2.57
2018-09-28T21:10:53.382Z,2.53
2018-09-28T21:13:56.787Z,2.63
2018-09-28T21:17:00.232Z,2.53
2018-09-28T21:20:04.851Z,2.20
2018-09-28T21:23:08.369Z,2.17
2018-09-28T21:26:11.907Z,2.07
2018-09-28T21:29:15.305Z,2.13
2018-09-28T21:32:19.918Z,1.70
2018-09-28T21:35:23.497Z,2.00
2018-09-28T21:38:27.153Z,1.97
2018-09-28T21:41:30.557Z,2.00
2018-09-28T21:44:33.944Z,2.30
2018-09-28T21:47:37.349Z,2.20
2018-09-28T21:50:40.779Z,1.90
2018-09-28T21:53:44.128Z,1.90
2018-09-28T21:56:47.540Z,1.80
2018-09-28T21:59:50.973Z,2.00
2018-09-28T22:02:54.337Z,2.00
2018-09-28T22:05:57.746Z,1.70
2018-09-28T22:09:01.214Z,2.20
2018-09-28T22:12:05.561Z,1.77
2018-09-28T22:15:09.102Z,1.90
2018-09-28T22:18:12.463Z,2.17
2018-09-28T22:21:15.950Z,2.30
2018-09-28T22:24:19.368Z,2.10
2018-09-28T22:27:22.769Z,2.00
2018-09-28T22:30:26.174Z,1.87
2018-09-28T22:33:29.571Z,1.80
2018-09-28T22:36:32.961Z,1.70
2018-09-28T22:39:36.481Z,1.93
2018-09-28T22:42:39.867Z,2.23
2018-09-28T22:45:43.272Z,1.90
2018-09-28T22:48:46.682Z,1.80
2018-09-28T22:51:50.127Z,1.67
2018-09-28T22:54:53.467Z,1.90
2018-09-28T22:57:56.866Z,1.90
2018-09-28T23:01:00.268Z,1.50
2018-09-28T23:04:03.669Z,1.60
2018-09-28T23:07:08.530Z,1.50
2018-09-28T23:10:11.961Z,1.57
2018-09-28T23:13:15.329Z,2.30
2018-09-28T23:16:18.759Z,2.10
2018-09-28T23:19:22.097Z,2.20
2018-09-28T23:22:25.516Z,1.67
2018-09-28T23:25:29.000Z,1.57
2018-09-28T23:28:32.588Z,1.50
2018-09-28T23:31:36.147Z,1.43
2018-09-28T23:34:39.633Z,1.27
2018-09-28T23:37:43.143Z,1.23
2018-09-28T23:40:46.634Z,1.70
2018-09-28T23:43:50.116Z,1.50
2018-09-28T23:46:53.617Z,1.57
2018-09-28T23:49:57.145Z,1.63
2018-09-28T23:53:00.669Z,1.20
2018-09-28T23:56:04.195Z,1.40
2018-09-28T23:59:07.799Z,1.10
